Date,TemperatureHighF,TemperatureAvgF,TemperatureLowF,DewpointHighF,DewpointAvgF,DewpointLowF,HumidityHigh,HumidityAvg,HumidityLow,PressureMaxIn,PressureMinIn,WindSpeedMaxMPH,WindSpeedAvgMPH,GustSpeedMaxMPH,PrecipitationSumIn
2013-4-1,71.2,55.3,38.5,52.0,43.3,38.3,100,69,42,30.13,29.95,12,3,12,0.00
2013-4-2,52.7,43.2,37.4,39.7,34.7,28.3,100,75,50,30.22,30.10,14,5,14,0.55
2013-4-3,53.6,43.8,37.6,40.3,29.5,23.6,92,59,38,30.22,30.13,19,4,19,0.04
2013-4-4,46.4,43.5,40.4,42.3,37.1,29.9,93,78,60,30.16,30.04,8,2,9,0.12
2013-4-5,68.3,49.3,30.5,46.0,38.3,30.5,100,72,34,30.19,30.01,9,2,9,0.00
2013-4-6,75.4,60.0,44.6,49.6,43.3,36.1,84,56,38,30.01,29.80,19,4,19,0.00
2013-4-7,71.9,62.7,52.5,55.0,51.3,46.7,90,67,54,29.95,29.83,15,3,15,0.00
2013-4-8,74.8,66.2,61.3,58.8,54.7,51.9,84,67,51,29.86,29.75,15,4,15,0.00
2013-4-9,81.1,71.2,63.3,61.6,57.0,53.4,76,62,43,29.86,29.75,17,5,19,0.00
2013-4-10,74.1,58.3,41.3,62.2,51.2,38.1,100,79,64,29.86,29.69,29,6,29,0.39
2013-4-11,56.5,44.6,36.8,39.5,33.4,28.5,93,66,45,29.83,29.72,20,8,20,0.00
2013-4-12,64.7,47.3,31.1,41.1,35.9,31.1,100,69,40,30.01,29.80,20,3,20,0.00
2013-4-13,68.9,53.5,38.6,45.2,39.9,35.6,95,63,42,30.07,29.80,11,3,11,0.00
2013-4-14,77.9,63.0,46.6,52.4,48.1,44.5,99,62,40,29.83,29.57,15,4,15,0.00
2013-4-15,76.4,66.5,58.4,59.1,56.6,52.2,92,72,53,29.80,29.69,15,5,15,0.00
2013-4-16,84.7,72.9,61.3,63.5,60.7,57.2,95,68,43,29.92,29.78,14,3,14,0.00
2013-4-17,82.0,74.6,68.7,66.3,62.4,58.0,88,67,50,29.95,29.69,15,4,15,0.00
2013-4-18,75.7,56.2,42.2,65.6,46.9,27.3,100,72,54,29.95,29.60,22,8,27,0.91
2013-4-19,56.6,44.9,35.2,33.4,28.4,22.1,84,53,37,30.10,29.95,20,6,20,0.00
2013-4-20,68.9,51.1,31.8,43.2,37.1,31.8,100,64,37,30.19,30.07,9,2,9,0.00
2013-4-21,68.2,55.7,41.7,45.9,40.2,36.0,95,59,37,30.25,30.10,15,3,15,0.00
2013-4-22,72.8,57.6,37.7,47.0,42.5,37.6,100,62,38,30.19,29.92,13,3,13,0.00
2013-4-23,70.0,57.3,43.5,54.9,47.5,35.3,100,71,50,30.04,29.86,16,4,16,0.00
2013-4-24,59.7,46.3,38.1,38.6,34.2,28.9,100,65,39,30.28,30.04,13,4,13,0.24
2013-4-25,68.7,50.7,30.7,41.2,36.5,30.7,100,64,34,30.34,30.19,12,2,12,0.00
2013-4-26,57.0,52.4,49.6,51.1,44.7,38.5,100,77,54,30.25,30.13,13,4,13,0.43
2013-4-27,58.6,53.8,51.1,57.0,52.7,49.2,100,96,87,30.13,29.92,15,4,15,0.43
2013-4-28,73.2,59.4,51.8,53.7,50.1,44.0,97,73,46,29.98,29.86,10,3,10,0.00
2013-4-29,84.2,65.4,47.5,60.9,54.6,47.5,100,72,41,29.92,29.78,15,2,15,0.00
2013-4-30,81.8,68.7,53.4,57.9,53.4,48.4,100,63,34,29.89,29.80,15,3,15,0.00